Time;durP1;ratioP1;P1;durP2;ratioP2;P2;SDS_P1;SDS_P2;PMS_P1;PMS_P2;Temp;Humidity;BMP_temperature;BMP_pressure;BME280_temperature;BME280_humidity;BME280_pressure;Samples;Min_cycle;Max_cycle;Signal;HPM_P1;HPM_P2
2023/07/14 00:00:08;;;;;;;2.80;1.75;;;22.70;67.10;;;;;;5028484;28;20057;-31
2023/07/14 00:02:37;;;;;;;2.92;1.80;;;22.30;61.00;;;;;;5028211;28;20134;-32
2023/07/14 00:05:04;;;;;;;3.22;2.08;;;23.10;75.70;;;;;;5014855;28;20107;-35
2023/07/14 00:07:30;;;;;;;2.55;1.58;;;22.50;74.30;;;;;;5009222;28;20518;-31
2023/07/14 00:09:58;;;;;;;2.42;1.55;;;;;;;;;;5028484;28;20049;-34
2023/07/14 00:12:24;;;;;;;2.53;1.65;;;22.20;76.60;;;;;;5028244;28;20045;-31
2023/07/14 00:14:52;;;;;;;2.78;1.60;;;;;;;;;;5028234;28;20086;-35
2023/07/14 00:17:18;;;;;;;3.45;1.60;;;22.30;76.50;;;;;;5028175;28;20056;-31
2023/07/14 00:19:47;;;;;;;1.95;1.70;;;22.30;61.00;;;;;;5025222;28;20053;-36
2023/07/14 00:22:14;;;;;;;3.40;1.60;;;22.30;61.00;;;;;;5023582;28;20046;-36
2023/07/14 00:24:42;;;;;;;2.50;1.58;;;22.20;76.50;;;;;;5028456;28;20069;-31
2023/07/14 00:27:14;;;;;;;2.25;1.70;;;21.70;77.10;;;;;;5028485;28;20140;-32
2023/07/14 00:29:42;;;;;;;2.58;1.73;;;22.40;61.70;;;;;;5027875;28;20430;-31
2023/07/14 00:32:13;;;;;;;2.42;1.60;;;22.00;76.40;;;;;;5028085;28;20498;-32
2023/07/14 00:34:40;;;;;;;1.95;1.50;;;;;;;;;;5028041;28;20056;-34
2023/07/14 00:37:08;;;;;;;2.55;1.73;;;22.60;77.50;;;;;;5026018;28;20061;-32
2023/07/14 00:39:36;;;;;;;3.13;1.70;;;;;;;;;;5027819;28;20041;-33
2023/07/14 00:42:07;;;;;;;2.45;1.77;;;22.20;72.50;;;;;;5028142;28;20099;-31
2023/07/14 00:44:34;;;;;;;2.70;1.67;;;22.20;76.60;;;;;;5027634;28;20060;-31
2023/07/14 00:47:01;;;;;;;2.22;1.70;;;22.20;66.00;;;;;;5027568;28;20058;-32
2023/07/14 00:49:32;;;;;;;2.00;1.63;;;21.30;76.10;;;;;;5027919;28;20110;-31
2023/07/14 00:51:59;;;;;;;2.05;1.63;;;21.80;67.80;;;;;;5027719;28;20053;-33
2023/07/14 00:54:29;;;;;;;1.60;1.42;;;23.00;70.00;;;;;;5009332;28;20058;-30
2023/07/14 00:56:56;;;;;;;2.00;1.60;;;23.00;70.30;;;;;;5007791;28;20054;-32
2023/07/14 00:59:23;;;;;;;2.80;1.70;;;;;;;;;;5007946;28;20457;-36
2023/07/14 01:02:20;;;;;;;1.92;1.73;;;22.00;76.50;;;;;;5008129;28;20054;-31
2023/07/14 01:04:48;;;;;;;2.30;1.90;;;22.20;60.90;;;;;;5007925;28;20060;-32
2023/07/14 01:07:16;;;;;;;2.78;1.70;;;;;;;;;;5007914;28;20468;-33
2023/07/14 01:09:44;;;;;;;2.20;1.70;;;22.80;69.40;;;;;;5014450;28;20410;-31
2023/07/14 01:12:11;;;;;;;2.47;1.90;;;22.10;62.20;;;;;;5023663;28;20054;-36
2023/07/14 01:14:40;;;;;;;2.10;1.70;;;22.30;72.20;;;;;;5027664;28;20053;-32
2023/07/14 01:17:07;;;;;;;2.45;1.88;;;;;;;;;;5027692;28;20068;-36
2023/07/14 01:19:37;;;;;;;2.00;1.60;;;23.00;64.50;;;;;;5027515;28;20058;-31
2023/07/14 01:22:08;;;;;;;2.22;1.63;;;22.10;71.00;;;;;;5027334;28;20096;-34
2023/07/14 01:24:38;;;;;;;2.80;1.83;;;22.50;61.10;;;;;;5026650;28;20110;-34
2023/07/14 01:27:06;;;;;;;2.22;1.70;;;22.30;77.60;;;;;;5007925;28;20057;-32
2023/07/14 01:29:33;;;;;;;4.10;1.95;;;21.60;76.50;;;;;;5007987;28;20098;-31
2023/07/14 01:32:01;;;;;;;4.53;2.00;;;22.00;76.60;;;;;;5007298;28;20499;-32
2023/07/14 01:34:28;;;;;;;2.08;1.70;;;21.70;76.50;;;;;;5007618;28;20057;-31
2023/07/14 01:36:58;;;;;;;2.35;1.90;;;;;;;;;;5016122;28;20160;-31
2023/07/14 01:39:25;;;;;;;2.75;1.92;;;21.20;63.40;;;;;;5027086;28;20053;-33
2023/07/14 01:41:52;;;;;;;2.35;2.10;;;;;;;;;;5015935;28;20099;-34
2023/07/14 01:44:21;;;;;;;2.63;1.85;;;21.50;76.80;;;;;;5019013;28;20053;-31
2023/07/14 01:46:48;;;;;;;2.35;1.90;;;21.80;64.00;;;;;;5028253;28;20098;-32
2023/07/14 01:49:25;;;;;;;2.38;2.13;;;22.00;67.40;;;;;;5030231;28;20050;-32
2023/07/14 01:51:53;;;;;;;2.80;1.70;;;;;;;;;;5030421;28;20490;-35
2023/07/14 01:54:26;;;;;;;2.53;1.80;;;22.20;61.50;;;;;;5030460;28;20459;-33
2023/07/14 01:56:53;;;;;;;3.10;1.98;;;22.00;76.40;;;;;;5029575;28;20101;-31
2023/07/14 01:59:23;;;;;;;2.00;1.70;;;22.10;60.90;;;;;;5010749;28;20065;-36
2023/07/14 02:01:49;;;;;;;3.72;1.75;;;21.20;76.20;;;;;;5010351;28;20058;-31
2023/07/14 02:04:19;;;;;;;2.40;1.80;;;22.50;63.40;;;;;;5010427;28;20050;-34
2023/07/14 02:06:46;;;;;;;2.72;1.95;;;;;;;;;;5011732;28;20050;-31
2023/07/14 02:09:16;;;;;;;2.20;1.90;;;22.10;60.90;;;;;;5025472;28;20113;-34
2023/07/14 02:11:43;;;;;;;2.25;1.75;;;22.50;64.30;;;;;;5030156;28;20045;-36
2023/07/14 02:14:12;;;;;;;2.42;1.92;;;21.80;76.20;;;;;;5020548;28;20048;-31
2023/07/14 02:16:40;;;;;;;2.45;2.08;;;21.90;77.60;;;;;;5010513;28;20383;-31
2023/07/14 02:19:08;;;;;;;3.00;1.88;;;22.00;76.60;;;;;;5010535;28;20062;-31
2023/07/14 02:21:37;;;;;;;2.30;1.80;;;;;;;;;;5010362;28;20046;-35
2023/07/14 02:24:04;;;;;;;3.20;2.00;;;21.40;65.50;;;;;;5010027;28;20045;-33
2023/07/14 02:26:33;;;;;;;2.95;2.10;;;22.10;60.90;;;;;;5010100;28;20058;-34
2023/07/14 02:29:00;;;;;;;2.72;1.98;;;22.60;65.90;;;;;;5009883;28;20074;-32
2023/07/14 02:31:28;;;;;;;3.47;2.10;;;22.40;77.30;;;;;;5028396;28;20468;-31
2023/07/14 02:33:56;;;;;;;2.72;2.00;;;22.00;75.40;;;;;;5029718;28;20046;-31
2023/07/14 02:36:28;;;;;;;3.25;2.03;;;21.90;76.60;;;;;;5029483;28;20110;-31
2023/07/14 02:38:55;;;;;;;2.75;1.92;;;22.40;76.30;;;;;;5029159;28;20045;-31
2023/07/14 02:41:26;;;;;;;2.15;1.90;;;22.00;60.80;;;;;;5029644;28;20056;-34
2023/07/14 02:43:54;;;;;;;2.65;2.00;;;22.20;77.00;;;;;;5029246;28;20539;-31
2023/07/14 02:46:22;;;;;;;3.47;2.20;;;21.30;73.30;;;;;;5019796;28;20080;-31
2023/07/14 02:48:50;;;;;;;2.17;1.98;;;22.50;74.30;;;;;;5010546;28;20049;-31
2023/07/14 02:51:18;;;;;;;1.98;1.75;;;21.70;76.90;;;;;;5029659;28;20046;-31
2023/07/14 02:53:45;;;;;;;2.38;1.92;;;22.20;77.20;;;;;;5029641;28;20045;-32
2023/07/14 02:56:12;;;;;;;4.15;2.13;;;21.40;76.70;;;;;;5029650;28;20057;-33
2023/07/14 02:58:39;;;;;;;2.25;1.95;;;22.60;65.70;;;;;;5029386;28;20463;-32
2023/07/14 03:01:05;;;;;;;3.28;2.10;;;21.10;76.20;;;;;;5029309;28;20494;-31
2023/07/14 03:03:33;;;;;;;2.72;1.90;;;;;;;;;;5027469;28;20496;-35
2023/07/14 03:06:00;;;;;;;2.75;2.20;;;21.60;77.40;;;;;;5029377;28;20045;-32
2023/07/14 03:08:29;;;;;;;3.67;2.45;;;22.00;60.80;;;;;;5029154;28;20101;-33
2023/07/14 03:10:56;;;;;;;3.20;1.90;;;22.30;76.70;;;;;;5029252;28;20076;-31
2023/07/14 03:13:23;;;;;;;2.50;2.00;;;21.80;60.70;;;;;;5029068;28;20052;-31
2023/07/14 03:15:50;;;;;;;2.30;1.73;;;22.30;68.20;;;;;;5029540;28;20110;-31
2023/07/14 03:18:17;;;;;;;2.90;2.10;;;;;;;;;;5022789;28;20053;-35
2023/07/14 03:20:44;;;;;;;2.60;2.10;;;21.50;76.40;;;;;;5009734;28;20064;-31
2023/07/14 03:23:11;;;;;;;3.03;2.00;;;;;;;;;;5009150;28;20049;-33
2023/07/14 03:25:40;;;;;;;3.05;1.80;;;21.30;76.30;;;;;;5009208;28;20567;-31
2023/07/14 03:28:07;;;;;;;3.30;2.30;;;;;;;;;;5009348;28;20560;-36
2023/07/14 03:30:38;;;;;;;2.40;2.05;;;22.30;76.90;;;;;;5009264;28;20510;-31
2023/07/14 03:33:05;;;;;;;2.67;1.98;;;22.30;77.70;;;;;;5009035;28;20046;-31
2023/07/14 03:35:32;;;;;;;3.17;2.10;;;22.60;70.80;;;;;;5019562;28;20057;-32
2023/07/14 03:37:59;;;;;;;3.47;2.08;;;;;;;;;;5028634;28;20041;-32
2023/07/14 03:40:26;;;;;;;3.33;2.20;;;22.10;61.60;;;;;;5028814;28;20106;-34
2023/07/14 03:42:54;;;;;;;2.63;2.00;;;21.90;77.60;;;;;;5028664;28;20102;-31
2023/07/14 03:45:21;;;;;;;2.70;2.05;;;;;;;;;;5028925;28;20057;-32
2023/07/14 03:47:49;;;;;;;3.10;2.13;;;22.10;66.40;;;;;;5028688;28;20057;-32
2023/07/14 03:50:16;;;;;;;3.25;2.20;;;;;;;;;;5026880;28;20157;-36
2023/07/14 03:52:43;;;;;;;2.38;2.13;;;21.00;76.40;;;;;;5009038;28;20050;-31
2023/07/14 03:55:10;;;;;;;2.92;2.08;;;;;;;;;;5009262;28;20181;-37
2023/07/14 03:57:37;;;;;;;2.63;2.10;;;22.00;72.20;;;;;;5009225;28;20054;-31
2023/07/14 04:00:12;;;;;;;2.80;2.42;;;21.90;60.80;;;;;;5009018;28;20058;-31
2023/07/14 04:02:39;;;;;;;3.15;2.38;;;;;;;;;;5011105;28;20060;-33
2023/07/14 04:05:07;;;;;;;2.47;2.20;;;21.90;60.80;;;;;;5017723;28;20042;-35
2023/07/14 04:07:34;;;;;;;3.35;2.13;;;22.20;76.70;;;;;;5017727;28;20132;-31
2023/07/14 04:10:02;;;;;;;3.17;2.50;;;22.40;75.20;;;;;;5018834;28;20045;-32
2023/07/14 04:12:29;;;;;;;2.22;2.03;;;22.60;63.50;;;;;;5019410;28;20050;-33
2023/07/14 04:14:56;;;;;;;3.50;2.20;;;22.50;77.70;;;;;;5018667;28;20041;-30
2023/07/14 04:17:24;;;;;;;2.42;2.00;;;22.90;77.50;;;;;;5017086;28;20057;-31
2023/07/14 04:19:51;;;;;;;3.05;2.13;;;;;;;;;;5018585;28;20102;-34
2023/07/14 04:22:18;;;;;;;2.50;2.10;;;22.70;67.20;;;;;;5018830;28;20095;-30
2023/07/14 04:24:45;;;;;;;2.40;2.13;;;21.90;68.10;;;;;;5008072;28;20046;-33
2023/07/14 04:27:12;;;;;;;2.47;2.20;;;21.90;77.50;;;;;;5007956;28;20050;-31
2023/07/14 04:29:39;;;;;;;2.65;2.13;;;;;;;;;;5008138;28;20054;-35
2023/07/14 04:32:07;;;;;;;2.50;2.08;;;21.30;76.30;;;;;;5014705;28;20110;-31
2023/07/14 04:34:36;;;;;;;2.63;2.10;;;21.80;76.50;;;;;;5022296;28;20106;-31
2023/07/14 04:37:03;;;;;;;3.92;2.10;;;21.60;76.70;;;;;;5027723;28;20471;-30
2023/07/14 04:39:30;;;;;;;2.63;2.08;;;21.70;71.90;;;;;;5027183;28;20081;-33
2023/07/14 04:41:57;;;;;;;3.03;2.08;;;21.90;62.90;;;;;;5027800;28;20053;-31
2023/07/14 04:44:24;;;;;;;2.60;2.20;;;21.30;77.00;;;;;;5027728;28;20057;-31
2023/07/14 04:46:51;;;;;;;2.60;1.98;;;;;;;;;;5028123;28;20102;-32
2023/07/14 04:49:18;;;;;;;3.97;2.20;;;;;;;;;;5027986;28;20102;-33
2023/07/14 04:51:47;;;;;;;3.08;2.20;;;21.70;77.10;;;;;;5027841;28;20057;-31
2023/07/14 04:54:13;;;;;;;2.22;1.85;;;21.50;68.10;;;;;;5027611;28;20098;-31
2023/07/14 04:56:42;;;;;;;2.88;2.20;;;21.90;68.30;;;;;;5026013;28;20185;-32
2023/07/14 04:59:09;;;;;;;2.90;2.20;;;21.40;76.50;;;;;;5027998;28;20060;-31
2023/07/14 05:01:35;;;;;;;3.63;2.40;;;21.80;69.20;;;;;;5027833;28;20387;-31
2023/07/14 05:04:02;;;;;;;2.50;2.13;;;21.80;61.30;;;;;;5027701;28;20542;-32
2023/07/14 05:06:29;;;;;;;2.97;2.13;;;21.40;76.20;;;;;;5027091;28;20562;-31
2023/07/14 05:08:57;;;;;;;3.05;2.00;;;21.80;77.10;;;;;;5027971;28;20049;-31
2023/07/14 05:11:24;;;;;;;2.65;2.10;;;21.60;76.30;;;;;;5022882;28;20110;-31
2023/07/14 05:13:51;;;;;;;2.28;2.05;;;21.80;77.00;;;;;;5007861;28;20453;-31
2023/07/14 05:16:19;;;;;;;2.60;2.20;;;;;;;;;;5007860;28;20083;-35
2023/07/14 05:18:46;;;;;;;3.22;2.22;;;22.30;76.90;;;;;;5007585;28;20499;-30
2023/07/14 05:21:13;;;;;;;3.13;2.30;;;;;;;;;;5008185;28;20058;-35
2023/07/14 05:23:40;;;;;;;2.83;2.10;;;21.70;77.20;;;;;;5010961;28;20091;-30
2023/07/14 05:26:08;;;;;;;2.85;2.30;;;21.80;60.90;;;;;;5011145;28;20052;-34
2023/07/14 05:28:35;;;;;;;2.25;1.90;;;22.70;66.90;;;;;;5025372;28;20057;-34
2023/07/14 05:31:03;;;;;;;2.47;2.20;;;21.60;76.70;;;;;;5030861;28;20049;-30
2023/07/14 05:33:30;;;;;;;2.47;2.25;;;;;;;;;;5030476;28;20410;-33
2023/07/14 05:35:57;;;;;;;2.70;2.08;;;;;;;;;;5030266;28;20383;-35
2023/07/14 05:38:24;;;;;;;2.60;2.10;;;22.40;77.00;;;;;;5030541;28;20574;-31
2023/07/14 05:40:52;;;;;;;3.08;2.20;;;;;;;;;;5030775;28;20050;-36
2023/07/14 05:43:20;;;;;;;3.03;2.10;;;21.30;76.60;;;;;;5026473;28;20049;-31
2023/07/14 05:45:48;;;;;;;2.92;2.10;;;;;;;;;;5011111;28;20099;-32
2023/07/14 05:48:16;;;;;;;2.83;2.22;;;21.40;60.80;;;;;;5010905;28;20077;-31
2023/07/14 05:50:44;;;;;;;2.60;2.15;;;21.70;60.90;;;;;;5010808;28;20050;-34
2023/07/14 05:53:11;;;;;;;3.22;2.28;;;21.90;61.60;;;;;;5010751;28;20089;-32
2023/07/14 05:55:38;;;;;;;3.05;2.00;;;;;;;;;;5010780;28;20141;-32
2023/07/14 05:58:06;;;;;;;3.03;2.00;;;21.50;77.60;;;;;;5010789;28;20049;-31
2023/07/14 06:00:38;;;;;;;2.30;2.10;;;21.50;77.20;;;;;;5020970;28;20056;-31
2023/07/14 06:03:06;;;;;;;2.42;2.13;;;21.80;76.90;;;;;;5011591;28;20413;-31
2023/07/14 06:05:33;;;;;;;2.50;2.20;;;21.80;70.60;;;;;;5010123;28;20064;-31
2023/07/14 06:08:00;;;;;;;2.80;2.10;;;21.50;77.20;;;;;;5015613;28;20045;-30
2023/07/14 06:10:27;;;;;;;2.30;2.10;;;;;;;;;;5030263;28;20057;-31
2023/07/14 06:12:54;;;;;;;3.05;2.40;;;21.90;77.10;;;;;;5030233;28;20560;-31
2023/07/14 06:15:21;;;;;;;2.95;2.42;;;21.70;72.40;;;;;;5026684;28;20102;-32
2023/07/14 06:17:49;;;;;;;3.65;2.20;;;21.70;61.00;;;;;;5015501;28;20045;-33
2023/07/14 06:20:16;;;;;;;2.75;2.17;;;21.40;61.80;;;;;;5019921;28;20053;-30
2023/07/14 06:22:44;;;;;;;2.60;2.22;;;22.10;69.90;;;;;;5017737;28;20414;-31
2023/07/14 06:25:12;;;;;;;3.53;2.25;;;;;;;;;;5022291;28;20045;-33
2023/07/14 06:27:39;;;;;;;2.65;2.30;;;21.90;65.30;;;;;;5029950;28;20487;-33
2023/07/14 06:30:08;;;;;;;2.90;2.03;;;21.70;61.00;;;;;;5030075;28;20506;-32
2023/07/14 06:32:35;;;;;;;3.50;2.53;;;;;;;;;;5018323;28;20057;-34
2023/07/14 06:35:04;;;;;;;2.88;2.20;;;22.10;78.10;;;;;;5010296;28;20119;-31
2023/07/14 06:37:31;;;;;;;3.45;2.30;;;;;;;;;;5023556;28;20053;-33
2023/07/14 06:39:58;;;;;;;2.67;2.30;;;21.60;77.90;;;;;;5029695;28;20045;-31
2023/07/14 06:42:25;;;;;;;3.70;2.00;;;;;;;;;;5029223;28;20110;-37
2023/07/14 06:44:53;;;;;;;3.13;2.30;;;;;;;;;;5029683;28;20106;-34
2023/07/14 06:47:20;;;;;;;2.88;2.20;;;;;;;;;;5027539;28;20103;-36
2023/07/14 06:49:46;;;;;;;2.40;2.00;;;21.50;77.30;;;;;;5010107;28;20049;-34
2023/07/14 06:52:15;;;;;;;3.25;2.03;;;21.70;61.20;;;;;;5012072;28;20045;-34
2023/07/14 06:54:43;;;;;;;3.00;2.00;;;;;;;;;;5009526;28;20056;-35
2023/07/14 06:57:10;;;;;;;3.42;2.30;;;21.70;63.30;;;;;;5009575;28;20050;-36
2023/07/14 06:59:37;;;;;;;2.80;2.25;;;21.60;67.30;;;;;;5009773;28;20688;-37
2023/07/14 07:02:04;;;;;;;3.33;2.28;;;;;;;;;;5009790;28;20050;-32
2023/07/14 07:04:33;;;;;;;4.97;2.17;;;21.60;69.60;;;;;;5009240;28;20552;-37
2023/07/14 07:07:00;;;;;;;3.65;2.20;;;;;;;;;;5012095;28;20053;-35
2023/07/14 07:09:28;;;;;;;2.03;1.77;;;22.40;77.50;;;;;;5029307;28;20102;-37
2023/07/14 07:11:56;;;;;;;2.50;1.90;;;;;;;;;;5029426;28;20121;-37
2023/07/14 07:14:23;;;;;;;3.33;1.90;;;22.00;70.00;;;;;;5029436;28;20050;-35
2023/07/14 07:16:50;;;;;;;2.47;1.88;;;;;;;;;;5029284;28;20045;-34
2023/07/14 07:19:17;;;;;;;2.08;1.80;;;22.10;77.20;;;;;;5029503;28;20061;-36
2023/07/14 07:21:44;;;;;;;3.80;2.03;;;21.60;77.10;;;;;;5024942;28;20057;-39
2023/07/14 07:24:11;;;;;;;2.75;1.85;;;22.20;75.00;;;;;;5022495;28;20068;-37
2023/07/14 07:26:39;;;;;;;3.00;1.85;;;22.10;68.30;;;;;;5013547;28;20049;-35
2023/07/14 07:29:06;;;;;;;2.67;2.00;;;22.10;78.20;;;;;;5009592;28;20048;-38
2023/07/14 07:31:33;;;;;;;2.65;1.90;;;22.00;63.80;;;;;;5009569;28;20117;-35
2023/07/14 07:34:00;;;;;;;2.20;1.70;;;21.80;77.20;;;;;;5016702;28;20494;-35
2023/07/14 07:36:27;;;;;;;3.88;1.90;;;21.90;64.50;;;;;;5028518;28;20049;-35
2023/07/14 07:38:54;;;;;;;3.70;1.80;;;21.90;77.30;;;;;;5027387;28;20057;-35
2023/07/14 07:41:22;;;;;;;3.65;1.70;;;21.90;61.20;;;;;;5024533;28;20057;-34
2023/07/14 07:43:50;;;;;;;2.33;1.90;;;21.80;64.80;;;;;;5027896;28;20050;-36
2023/07/14 07:46:19;;;;;;;2.25;1.67;;;22.20;69.40;;;;;;5027966;28;20570;-40
2023/07/14 07:48:46;;;;;;;2.47;1.60;;;;;;;;;;5028877;28;20466;-36
2023/07/14 07:51:13;;;;;;;3.00;1.67;;;21.80;77.30;;;;;;5029056;28;20053;-39
2023/07/14 07:53:39;;;;;;;2.97;1.90;;;21.40;64.20;;;;;;5025487;28;20099;-35
2023/07/14 07:56:06;;;;;;;2.38;1.65;;;22.90;69.40;;;;;;5013475;28;20507;-36
2023/07/14 07:58:33;;;;;;;2.22;1.80;;;22.50;77.50;;;;;;5009081;28;20057;-39
2023/07/14 08:01:02;;;;;;;2.40;1.90;;;21.90;66.90;;;;;;5009029;28;20091;-35
2023/07/14 08:03:30;;;;;;;2.25;1.70;;;23.10;77.30;;;;;;5009087;28;20115;-35
2023/07/14 08:05:59;;;;;;;3.03;1.95;;;21.60;76.60;;;;;;5008693;28;20129;-38
2023/07/14 08:08:26;;;;;;;2.58;1.80;;;21.90;76.80;;;;;;5017262;28;20527;-39
2023/07/14 08:10:53;;;;;;;2.90;1.63;;;21.80;72.50;;;;;;5028559;28;20502;-40
2023/07/14 08:13:20;;;;;;;3.80;1.85;;;;;;;;;;5024100;28;20045;-34
2023/07/14 08:15:47;;;;;;;2.67;1.92;;;21.70;77.20;;;;;;5019665;28;20090;-38
2023/07/14 08:18:16;;;;;;;2.47;1.80;;;22.10;61.00;;;;;;5025397;28;20106;-37
2023/07/14 08:20:43;;;;;;;4.20;1.90;;;;;;;;;;5015149;28;20068;-34
2023/07/14 08:23:13;;;;;;;5.10;1.80;;;22.20;60.90;;;;;;5026964;28;20098;-39
2023/07/14 08:25:40;;;;;;;2.92;2.22;;;22.00;60.80;;;;;;5018585;28;20067;-38
2023/07/14 08:28:07;;;;;;;3.85;1.73;;;23.40;62.70;;;;;;5035027;27;20096;-36
2023/07/14 08:30:35;;;;;;;2.65;1.90;;;;;;;;;;5017245;28;20046;-34
2023/07/14 08:33:02;;;;;;;4.15;2.05;;;22.60;76.80;;;;;;5019139;28;20046;-39
2023/07/14 08:35:30;;;;;;;3.03;1.80;;;21.90;64.70;;;;;;5016286;28;20410;-36
2023/07/14 08:37:57;;;;;;;3.58;1.80;;;22.90;72.10;;;;;;5018046;28;20050;-36
2023/07/14 08:40:26;;;;;;;4.38;1.60;;;21.30;71.20;;;;;;5018858;28;20057;-38
2023/07/14 08:43:04;;;;;;;2.67;1.90;;;22.40;60.60;;;;;;5017796;28;20054;-35
2023/07/14 08:45:36;;;;;;;3.10;2.10;;;22.40;60.60;;;;;;5021055;28;20075;-36
2023/07/14 08:48:08;;;;;;;4.05;2.00;;;22.20;76.60;;;;;;5024358;28;20060;-35
2023/07/14 08:50:37;;;;;;;4.18;1.98;;;22.40;65.00;;;;;;5013337;28;20042;-36
2023/07/14 08:53:04;;;;;;;2.97;1.63;;;22.40;76.00;;;;;;5016556;28;20130;-38
2023/07/14 08:55:33;;;;;;;4.72;2.03;;;22.50;60.40;;;;;;5021663;28;20490;-36
2023/07/14 08:58:01;;;;;;;2.72;1.73;;;22.50;60.40;;;;;;5020707;28;20090;-36
2023/07/14 09:00:31;;;;;;;3.03;1.95;;;22.30;75.90;;;;;;5022707;28;20042;-37
2023/07/14 09:03:07;;;;;;;3.28;1.92;;;22.50;69.50;;;;;;5021168;28;20048;-36
2023/07/14 09:05:35;;;;;;;3.35;2.08;;;21.70;64.90;;;;;;5010986;28;20050;-36
2023/07/14 09:08:03;;;;;;;2.28;1.90;;;22.40;60.40;;;;;;5016827;28;20101;-34
2023/07/14 09:10:34;;;;;;;2.00;1.75;;;22.40;60.50;;;;;;5021870;28;20042;-35
2023/07/14 09:13:06;;;;;;;3.95;1.90;;;22.50;77.20;;;;;;5017780;28;20064;-35
2023/07/14 09:15:33;;;;;;;2.22;1.92;;;;;;;;;;5015798;28;20041;-37
2023/07/14 09:18:09;;;;;;;2.22;1.70;;;22.40;60.60;;;;;;5021394;28;20050;-37
2023/07/14 09:20:52;;;;;;;4.53;2.25;;;22.40;60.60;;;;;;5010264;28;20054;-36
2023/07/14 09:23:33;;;;;;;2.33;1.70;;;22.40;74.90;;;;;;5013219;28;20084;-37
2023/07/14 09:26:03;;;;;;;3.90;1.95;;;22.30;61.10;;;;;;5028977;28;20452;-38
2023/07/14 09:28:33;;;;;;;2.83;2.20;;;22.30;60.80;;;;;;5019969;28;20510;-37
2023/07/14 09:31:01;;;;;;;2.65;2.10;;;22.40;60.80;;;;;;5031049;28;20050;-35
2023/07/14 09:33:29;;;;;;;2.75;2.30;;;;;;;;;;5027880;28;20053;-38
2023/07/14 09:35:56;;;;;;;3.15;2.33;;;22.80;77.80;;;;;;5030416;28;20045;-36
2023/07/14 09:38:29;;;;;;;2.80;2.20;;;22.40;61.20;;;;;;5030296;28;20494;-37
2023/07/14 09:40:58;;;;;;;4.00;2.20;;;22.40;60.90;;;;;;5030720;28;20050;-35
2023/07/14 09:43:25;;;;;;;3.28;2.13;;;;;;;;;;5027209;28;20053;-34
2023/07/14 09:45:54;;;;;;;2.60;1.90;;;23.20;77.90;;;;;;5017238;28;20046;-39
2023/07/14 09:48:22;;;;;;;4.30;2.05;;;22.40;60.80;;;;;;5019989;28;20473;-35
2023/07/14 09:50:55;;;;;;;3.15;1.90;;;22.40;60.80;;;;;;5021845;28;20648;-39
2023/07/14 09:53:22;;;;;;;3.72;2.33;;;22.60;76.70;;;;;;5030667;28;20114;-40
2023/07/14 09:55:52;;;;;;;3.30;2.10;;;22.40;60.90;;;;;;5030434;28;20521;-35
2023/07/14 09:58:22;;;;;;;3.45;2.20;;;22.70;66.30;;;;;;5030220;28;20125;-36
2023/07/14 10:00:49;;;;;;;6.32;2.28;;;22.00;64.80;;;;;;5030393;28;20563;-40
2023/07/14 10:03:16;;;;;;;2.28;1.90;;;22.70;73.70;;;;;;5030304;28;20125;-36
2023/07/14 10:05:49;;;;;;;4.13;2.40;;;22.00;71.00;;;;;;5030453;28;20042;-32
2023/07/14 10:08:30;;;;;;;2.75;2.25;;;22.30;61.00;;;;;;5029352;28;20049;-34
2023/07/14 10:11:00;;;;;;;4.13;2.10;;;22.50;77.40;;;;;;5030380;28;20077;-32
2023/07/14 10:13:28;;;;;;;4.07;2.20;;;22.30;60.90;;;;;;5029889;28;20581;-31
2023/07/14 10:15:58;;;;;;;2.80;2.08;;;22.10;67.00;;;;;;5030376;28;20060;-32
2023/07/14 10:18:27;;;;;;;3.42;2.00;;;;;;;;;;5029956;28;20137;-33
2023/07/14 10:21:05;;;;;;;3.30;2.15;;;21.80;76.70;;;;;;5024562;28;20507;-32
2023/07/14 10:23:32;;;;;;;2.50;1.90;;;22.50;63.20;;;;;;5012612;28;20087;-35
2023/07/14 10:26:02;;;;;;;2.50;2.03;;;22.90;69.60;;;;;;5024006;28;20045;-32
2023/07/14 10:28:30;;;;;;;3.40;2.00;;;23.50;62.50;;;;;;5020421;28;20046;-32
2023/07/14 10:31:14;;;;;;;3.20;2.05;;;22.60;66.10;;;;;;5019008;28;20055;-32
2023/07/14 10:33:45;;;;;;;2.90;2.30;;;22.00;62.80;;;;;;5009736;28;20495;-32
2023/07/14 10:36:15;;;;;;;3.60;2.17;;;22.60;60.40;;;;;;5010647;28;20042;-33
2023/07/14 10:38:44;;;;;;;3.95;2.63;;;22.50;60.30;;;;;;5018023;28;20132;-33
2023/07/14 10:41:12;;;;;;;3.28;2.05;;;22.80;66.40;;;;;;5015596;28;20094;-34
2023/07/14 10:43:40;;;;;;;2.90;1.90;;;22.30;68.60;;;;;;5020927;28;20469;-33
2023/07/14 10:46:11;;;;;;;3.97;2.00;;;22.70;60.20;;;;;;5010565;28;20150;-33
2023/07/14 10:48:39;;;;;;;3.00;2.17;;;22.20;64.80;;;;;;5009870;28;20148;-32
2023/07/14 10:51:09;;;;;;;2.67;2.00;;;22.90;76.10;;;;;;5010236;28;20139;-33
2023/07/14 10:53:39;;;;;;;4.20;2.28;;;22.70;60.10;;;;;;5009741;28;20117;-32
2023/07/14 10:56:09;;;;;;;5.07;2.03;;;21.90;75.60;;;;;;5009978;28;20046;-32
2023/07/14 10:58:38;;;;;;;3.03;2.00;;;22.80;60.00;;;;;;5014646;28;20050;-33
2023/07/14 11:01:07;;;;;;;2.75;1.90;;;22.80;60.00;;;;;;5019990;28;20058;-35
2023/07/14 11:03:38;;;;;;;2.97;2.08;;;22.40;75.50;;;;;;5008389;28;21531;-33
2023/07/14 11:06:09;;;;;;;2.72;1.70;;;22.80;60.00;;;;;;5017513;28;20049;-34
2023/07/14 11:08:36;;;;;;;3.22;2.05;;;22.80;76.10;;;;;;5021047;28;20046;-32
2023/07/14 11:11:08;;;;;;;3.13;2.15;;;22.80;60.00;;;;;;5028291;28;20140;-34
2023/07/14 11:13:44;;;;;;;2.70;2.13;;;22.80;60.90;;;;;;5029085;28;20076;-32
2023/07/14 11:16:12;;;;;;;1.98;1.70;;;22.10;64.10;;;;;;5029672;28;20406;-32
2023/07/14 11:18:44;;;;;;;2.70;1.92;;;23.00;75.70;;;;;;5025688;28;20125;-33
2023/07/14 11:21:21;;;;;;;2.22;1.75;;;22.80;59.90;;;;;;5020415;28;20050;-37
2023/07/14 11:23:52;;;;;;;3.33;1.90;;;22.70;76.50;;;;;;5028750;28;20124;-33
2023/07/14 11:26:21;;;;;;;1.90;1.60;;;22.70;59.80;;;;;;5023861;28;20128;-33
2023/07/14 11:28:52;;;;;;;3.60;2.10;;;22.40;75.40;;;;;;5009336;28;20600;-33
2023/07/14 11:31:20;;;;;;;2.53;1.92;;;22.60;75.60;;;;;;5009820;28;20053;-34
2023/07/14 11:33:51;;;;;;;3.92;1.90;;;23.10;76.30;;;;;;5009381;28;20057;-33
2023/07/14 11:36:20;;;;;;;2.15;1.95;;;22.30;76.40;;;;;;5012818;28;20055;-32
2023/07/14 11:38:49;;;;;;;2.53;1.75;;;23.30;60.40;;;;;;5028690;28;20049;-36
2023/07/14 11:41:16;;;;;;;2.30;1.80;;;22.30;75.60;;;;;;5029501;28;20128;-32
2023/07/14 11:43:43;;;;;;;2.90;1.80;;;22.50;75.70;;;;;;5024602;28;20487;-32
2023/07/14 11:46:14;;;;;;;2.70;1.85;;;23.10;76.10;;;;;;5009150;28;20129;-32
2023/07/14 11:48:43;;;;;;;2.58;1.85;;;22.90;66.40;;;;;;5020917;28;20053;-34
2023/07/14 11:51:12;;;;;;;2.33;1.90;;;22.70;60.10;;;;;;5019075;28;20050;-33
2023/07/14 11:53:40;;;;;;;2.65;1.70;;;22.70;60.00;;;;;;5025442;28;20140;-35
2023/07/14 11:56:18;;;;;;;5.32;1.83;;;23.10;68.60;;;;;;5025424;28;20513;-32
2023/07/14 11:58:45;;;;;;;3.13;2.03;;;22.70;71.10;;;;;;5010021;28;20058;-35
2023/07/14 12:01:17;;;;;;;5.53;2.00;;;22.30;75.80;;;;;;5012915;28;20132;-31
2023/07/14 12:03:48;;;;;;;3.13;2.10;;;23.00;69.60;;;;;;5021700;28;20046;-33
2023/07/14 12:06:24;;;;;;;4.50;2.30;;;23.00;61.50;;;;;;5008803;28;20046;-34
2023/07/14 12:09:11;;;;;;;3.65;2.30;;;22.80;73.30;;;;;;5020361;28;20502;-33
2023/07/14 12:11:56;;;;;;;3.92;2.20;;;23.80;65.10;;;;;;5028616;28;20418;-33
2023/07/14 12:14:46;;;;;;;5.63;2.53;;;22.90;60.10;;;;;;5028607;28;20057;-34
2023/07/14 12:17:44;;;;;;;5.03;2.40;;;23.20;76.80;;;;;;5028563;28;20052;-33
2023/07/14 12:20:30;;;;;;;2.97;2.20;;;22.80;72.40;;;;;;5024927;28;20049;-33
2023/07/14 12:23:08;;;;;;;3.92;2.40;;;23.20;75.90;;;;;;5008470;28;20106;-32
2023/07/14 12:25:39;;;;;;;5.57;2.30;;;22.00;75.20;;;;;;5008582;28;20137;-32
2023/07/14 12:28:07;;;;;;;5.22;2.25;;;;;;;;;;5008791;28;20054;-36
2023/07/14 12:30:34;;;;;;;3.83;2.10;;;;;;;;;;5007928;28;20103;-35
2023/07/14 12:33:03;;;;;;;2.92;2.10;;;22.50;68.10;;;;;;5008149;28;20582;-32
2023/07/14 12:35:32;;;;;;;2.70;2.10;;;;;;;;;;5008166;28;20411;-36
2023/07/14 12:38:07;;;;;;;3.50;2.10;;;22.70;60.30;;;;;;5025602;28;20467;-34
2023/07/14 12:40:34;;;;;;;4.53;2.47;;;22.10;62.40;;;;;;5026760;28;20056;-35
2023/07/14 12:43:03;;;;;;;3.47;2.20;;;;;;;;;;5027540;28;20071;-35
2023/07/14 12:45:29;;;;;;;3.92;2.03;;;23.20;76.70;;;;;;5027277;28;20073;-32
2023/07/14 12:47:58;;;;;;;2.72;2.10;;;23.30;60.60;;;;;;5028375;28;20474;-33
2023/07/14 12:50:26;;;;;;;4.55;2.35;;;24.20;65.00;;;;;;5028019;28;20515;-32
2023/07/14 12:52:53;;;;;;;3.80;2.03;;;22.90;75.50;;;;;;5028042;28;20055;-32
2023/07/14 12:55:23;;;;;;;3.42;2.20;;;23.20;65.00;;;;;;5028104;28;20469;-32
2023/07/14 12:57:50;;;;;;;2.50;2.05;;;;;;;;;;5023000;28;20053;-36
2023/07/14 13:00:20;;;;;;;2.92;2.00;;;23.20;67.40;;;;;;5027533;28;20145;-32
2023/07/14 13:02:48;;;;;;;3.22;1.90;;;22.80;59.80;;;;;;5027853;28;20060;-36
2023/07/14 13:05:15;;;;;;;2.67;2.10;;;;;;;;;;5026629;28;20124;-33
2023/07/14 13:07:45;;;;;;;3.13;2.00;;;23.20;75.50;;;;;;5027385;28;20081;-33
2023/07/14 13:10:17;;;;;;;3.50;2.00;;;22.80;71.10;;;;;;5008165;28;20132;-32
2023/07/14 13:12:44;;;;;;;2.22;1.80;;;22.90;65.60;;;;;;5008005;28;20125;-32